Time;durP1;ratioP1;P1;durP2;ratioP2;P2;SDS_P1;SDS_P2;PMS_P1;PMS_P2;Temp;Humidity;BMP_temperature;BMP_pressure;BME280_temperature;BME280_humidity;BME280_pressure;Samples;Min_cycle;Max_cycle;Signal;HPM_P1;HPM_P2
2022/01/07 00:00:59;;;;;;;0.10;0.10;;;-0.80;99.90;;;;;;5095021;28;20188;-60
2022/01/07 00:03:26;;;;;;;0.10;0.10;;;-0.80;99.90;;;;;;5095198;28;20240;-60
2022/01/07 00:05:51;;;;;;;0.00;0.00;;;-0.80;99.90;;;;;;5094705;28;20213;-69
2022/01/07 00:08:17;;;;;;;0.10;0.10;;;-0.90;99.90;;;;;;5095165;28;20212;-60
2022/01/07 00:10:43;;;;;;;0.83;0.83;;;-0.90;99.90;;;;;;5095151;28;20209;-59
2022/01/07 00:13:09;;;;;;;0.00;0.00;;;-0.90;99.90;;;;;;5093920;28;20647;-63
2022/01/07 00:15:35;;;;;;;0.10;0.10;;;-0.90;99.90;;;;;;5095010;28;20177;-60
2022/01/07 00:18:01;;;;;;;0.33;0.30;;;-0.90;99.90;;;;;;5094512;28;20183;-59
2022/01/07 00:20:27;;;;;;;0.00;0.00;;;-0.90;99.90;;;;;;5094653;28;20564;-60
2022/01/07 00:22:53;;;;;;;0.30;0.30;;;-1.00;99.90;;;;;;5094243;28;20284;-81
2022/01/07 00:25:21;;;;;;;0.00;0.00;;;-1.00;99.90;;;;;;5092901;28;20279;-60
2022/01/07 00:27:47;;;;;;;0.10;0.10;;;-1.00;99.90;;;;;;5093028;28;20177;-61
2022/01/07 00:30:14;;;;;;;0.00;0.00;;;-1.00;99.90;;;;;;5091944;28;20329;-60
2022/01/07 00:32:40;;;;;;;0.00;0.00;;;-1.00;99.90;;;;;;5093674;28;20192;-63
2022/01/07 00:35:07;;;;;;;0.07;0.07;;;-1.10;99.90;;;;;;5093009;28;20161;-60
2022/01/07 00:37:33;;;;;;;0.10;0.10;;;-1.20;99.90;;;;;;5094259;28;20169;-60
2022/01/07 00:39:58;;;;;;;1.57;1.47;;;-1.20;99.90;;;;;;5094177;28;20581;-61
2022/01/07 00:42:25;;;;;;;0.10;0.10;;;-1.30;99.90;;;;;;5094381;28;20184;-59
2022/01/07 00:44:50;;;;;;;0.03;0.03;;;-1.20;99.90;;;;;;5093490;28;20678;-60
2022/01/07 00:47:16;;;;;;;0.00;0.00;;;-1.20;99.90;;;;;;5093894;28;20177;-61
2022/01/07 00:49:44;;;;;;;0.23;0.23;;;-1.20;99.90;;;;;;5093901;28;20185;-60
2022/01/07 00:52:09;;;;;;;0.00;0.00;;;-1.20;99.90;;;;;;5093835;28;20268;-60
2022/01/07 00:54:35;;;;;;;0.00;0.00;;;-1.20;99.90;;;;;;5093961;28;20176;-60
2022/01/07 00:57:01;;;;;;;0.43;0.43;;;-1.20;99.90;;;;;;5091442;28;20191;-60
2022/01/07 00:59:27;;;;;;;0.00;0.00;;;-1.20;99.90;;;;;;5093373;28;20188;-60
2022/01/07 01:01:53;;;;;;;0.43;0.43;;;-1.20;99.90;;;;;;5093519;28;20242;-60
2022/01/07 01:04:19;;;;;;;0.00;0.00;;;-1.30;99.90;;;;;;5093111;28;20569;-60
2022/01/07 01:06:45;;;;;;;0.00;0.00;;;-1.30;99.90;;;;;;5093361;28;20296;-60
2022/01/07 01:09:12;;;;;;;0.57;0.40;;;-1.20;99.90;;;;;;5092979;28;20211;-62
2022/01/07 01:11:38;;;;;;;0.10;0.10;;;-1.30;99.90;;;;;;5093750;28;20713;-61
2022/01/07 01:14:05;;;;;;;0.00;0.00;;;-1.30;99.90;;;;;;5093076;28;20237;-60
2022/01/07 01:16:31;;;;;;;0.00;0.00;;;-1.30;99.90;;;;;;5093439;28;20183;-60
2022/01/07 01:18:58;;;;;;;0.30;0.30;;;-1.40;99.90;;;;;;5093209;28;20271;-75
2022/01/07 01:21:24;;;;;;;0.00;0.00;;;-1.30;99.90;;;;;;5093156;28;20232;-60
2022/01/07 01:23:50;;;;;;;0.10;0.10;;;-1.30;99.90;;;;;;5092532;28;20208;-60
2022/01/07 01:26:20;;;;;;;0.00;0.00;;;-1.30;99.90;;;;;;5092767;28;20662;-60
2022/01/07 01:28:46;;;;;;;0.30;0.30;;;-1.30;99.90;;;;;;5093058;28;20616;-60
2022/01/07 01:31:17;;;;;;;0.73;0.73;;;-1.30;99.90;;;;;;5092897;28;20286;-60
2022/01/07 01:33:45;;;;;;;0.00;0.00;;;-1.30;99.90;;;;;;5092845;28;20316;-61
2022/01/07 01:36:11;;;;;;;4.80;1.90;;;-1.30;99.90;;;;;;5093109;28;20318;-60
2022/01/07 01:38:38;;;;;;;0.10;0.10;;;-1.30;99.90;;;;;;5074412;28;20212;-64
2022/01/07 01:41:05;;;;;;;0.40;0.40;;;-1.40;99.90;;;;;;5092461;28;20250;-60
2022/01/07 01:43:31;;;;;;;0.20;0.20;;;-1.40;99.90;;;;;;5092503;28;20258;-60
2022/01/07 01:45:57;;;;;;;0.07;0.07;;;-1.40;99.90;;;;;;5091788;28;20192;-60
2022/01/07 01:48:23;;;;;;;0.90;0.90;;;-1.40;99.90;;;;;;5091299;28;20185;-64
2022/01/07 01:50:49;;;;;;;0.00;0.00;;;-1.40;99.90;;;;;;5092646;28;20186;-60
2022/01/07 01:53:15;;;;;;;0.00;0.00;;;-1.40;99.90;;;;;;5091828;28;20276;-60
2022/01/07 01:55:41;;;;;;;0.10;0.10;;;-1.40;99.90;;;;;;5092097;28;20181;-59
2022/01/07 01:58:07;;;;;;;0.10;0.10;;;-1.40;99.90;;;;;;5091891;28;20195;-60
2022/01/07 02:00:34;;;;;;;0.10;0.10;;;-1.40;99.90;;;;;;5092432;28;20195;-64
2022/01/07 02:03:00;;;;;;;0.00;0.00;;;-1.40;99.90;;;;;;5091740;28;20216;-67
2022/01/07 02:05:26;;;;;;;6.07;0.83;;;-1.40;99.90;;;;;;5092514;28;20211;-60
2022/01/07 02:07:53;;;;;;;0.40;0.30;;;-1.40;99.90;;;;;;5091091;28;20637;-60
2022/01/07 02:10:19;;;;;;;0.00;0.00;;;-1.40;99.90;;;;;;5092018;28;20763;-61
2022/01/07 02:12:45;;;;;;;0.50;0.50;;;-1.50;99.90;;;;;;5092261;28;20291;-60
2022/01/07 02:15:13;;;;;;;0.00;0.00;;;-1.50;99.90;;;;;;5092064;28;20172;-60
2022/01/07 02:17:41;;;;;;;0.30;0.30;;;-1.50;99.90;;;;;;5092314;28;20175;-60
2022/01/07 02:20:08;;;;;;;0.37;0.37;;;-1.50;99.90;;;;;;5090716;28;20181;-60
2022/01/07 02:22:33;;;;;;;0.00;0.00;;;-1.50;99.90;;;;;;5091831;28;20180;-60
2022/01/07 02:24:59;;;;;;;0.00;0.00;;;-1.60;99.90;;;;;;5092015;28;20285;-61
2022/01/07 02:27:25;;;;;;;0.00;0.00;;;-1.60;99.90;;;;;;5091690;28;20536;-60
2022/01/07 02:29:51;;;;;;;0.07;0.07;;;-1.60;99.90;;;;;;5092053;28;20181;-60
2022/01/07 02:32:18;;;;;;;0.00;0.00;;;-1.60;99.90;;;;;;5091772;28;20181;-60
2022/01/07 02:34:45;;;;;;;1.10;0.57;;;-1.60;99.90;;;;;;5091722;28;20323;-64
2022/01/07 02:37:12;;;;;;;0.00;0.00;;;-1.60;99.90;;;;;;5091894;28;20177;-61
2022/01/07 02:39:39;;;;;;;0.00;0.00;;;-1.60;99.90;;;;;;5091976;28;20177;-61
2022/01/07 02:42:05;;;;;;;0.00;0.00;;;-1.60;99.90;;;;;;5091608;28;20204;-60
2022/01/07 02:44:31;;;;;;;1.07;0.97;;;-1.60;99.90;;;;;;5091850;28;20215;-60
2022/01/07 02:46:57;;;;;;;0.00;0.00;;;-1.60;99.90;;;;;;5091949;28;20192;-60
2022/01/07 02:49:23;;;;;;;0.17;0.17;;;-1.60;99.90;;;;;;5091680;28;20185;-60
2022/01/07 02:51:48;;;;;;;1.60;1.20;;;-1.50;99.90;;;;;;5091560;28;20180;-60
2022/01/07 02:54:14;;;;;;;0.10;0.10;;;-1.50;99.90;;;;;;5091534;28;20188;-59
2022/01/07 02:56:41;;;;;;;0.00;0.00;;;-1.60;99.90;;;;;;5091565;28;20181;-63
2022/01/07 02:59:08;;;;;;;0.07;0.07;;;-1.60;99.90;;;;;;5091583;28;20192;-60
2022/01/07 03:01:35;;;;;;;0.77;0.77;;;-1.50;99.90;;;;;;5091454;28;20590;-59
2022/01/07 03:04:02;;;;;;;0.30;0.20;;;-1.60;99.90;;;;;;5073420;28;20220;-60
2022/01/07 03:06:28;;;;;;;0.23;0.23;;;-1.60;99.90;;;;;;5073988;28;20189;-60
2022/01/07 03:08:54;;;;;;;0.00;0.00;;;-1.60;99.90;;;;;;5095457;28;20655;-60
2022/01/07 03:11:21;;;;;;;0.00;0.00;;;-1.60;99.90;;;;;;5095221;28;20184;-60
2022/01/07 03:13:46;;;;;;;0.00;0.00;;;-1.60;99.90;;;;;;5094988;28;20177;-60
2022/01/07 03:16:13;;;;;;;0.00;0.00;;;-1.60;99.90;;;;;;5095215;28;20265;-60
2022/01/07 03:18:39;;;;;;;0.00;0.00;;;-1.60;99.90;;;;;;5095373;28;20176;-60
2022/01/07 03:21:04;;;;;;;2.73;0.73;;;-1.60;99.90;;;;;;5094539;28;20180;-64
2022/01/07 03:23:31;;;;;;;0.00;0.00;;;-1.60;99.90;;;;;;5094763;28;20226;-60
2022/01/07 03:25:57;;;;;;;1.07;0.97;;;-1.60;99.90;;;;;;5095108;28;20180;-60
2022/01/07 03:28:23;;;;;;;1.73;0.33;;;-1.60;99.90;;;;;;5094857;28;20183;-58
2022/01/07 03:30:49;;;;;;;0.50;0.50;;;-1.60;99.90;;;;;;5095086;28;20204;-59
2022/01/07 03:33:15;;;;;;;1.03;0.47;;;-1.60;99.90;;;;;;5094258;28;20221;-60
2022/01/07 03:35:41;;;;;;;0.00;0.00;;;-1.60;99.90;;;;;;5094959;28;20755;-59
2022/01/07 03:38:08;;;;;;;0.20;0.20;;;-1.60;99.90;;;;;;5094581;28;20271;-60
2022/01/07 03:40:35;;;;;;;0.43;0.23;;;-1.60;99.90;;;;;;5093480;28;20531;-60
2022/01/07 03:43:01;;;;;;;0.07;0.07;;;-1.60;99.90;;;;;;5094670;28;20204;-60
2022/01/07 03:45:27;;;;;;;0.40;0.40;;;-1.60;99.90;;;;;;5093167;28;20521;-61
2022/01/07 03:47:53;;;;;;;0.07;0.07;;;-1.60;99.90;;;;;;5094602;28;20184;-59
2022/01/07 03:50:22;;;;;;;0.30;0.30;;;-1.60;99.90;;;;;;5094182;28;20196;-60
2022/01/07 03:52:48;;;;;;;0.10;0.10;;;-1.60;99.90;;;;;;5092923;28;20264;-60
2022/01/07 03:55:17;;;;;;;0.10;0.10;;;-1.60;99.90;;;;;;5094145;28;20184;-60
2022/01/07 03:57:43;;;;;;;0.10;0.10;;;-1.50;99.90;;;;;;5094039;28;20211;-60
2022/01/07 04:00:20;;;;;;;0.20;0.20;;;-1.50;99.90;;;;;;5094240;28;20636;-60
2022/01/07 04:02:47;;;;;;;0.00;0.00;;;-1.50;99.90;;;;;;5094170;28;20187;-60
2022/01/07 04:05:15;;;;;;;0.10;0.10;;;-1.50;99.90;;;;;;5093999;28;20191;-64
2022/01/07 04:07:40;;;;;;;0.13;0.13;;;-1.60;99.90;;;;;;5094224;28;20192;-58
2022/01/07 04:10:06;;;;;;;0.97;0.73;;;-1.60;99.90;;;;;;5094161;28;20245;-74
2022/01/07 04:12:32;;;;;;;0.07;0.07;;;-1.60;99.90;;;;;;5094128;28;20267;-59
2022/01/07 04:15:08;;;;;;;1.17;1.07;;;-1.60;99.90;;;;;;5093815;28;20177;-63
2022/01/07 04:17:38;;;;;;;0.03;0.03;;;-1.60;99.90;;;;;;5092299;28;20529;-63
2022/01/07 04:20:07;;;;;;;0.00;0.00;;;-1.70;99.90;;;;;;5091922;28;20181;-59
2022/01/07 04:22:33;;;;;;;0.00;0.00;;;-1.70;99.90;;;;;;5093826;28;20176;-60
2022/01/07 04:25:00;;;;;;;0.20;0.20;;;-1.70;99.90;;;;;;5094057;28;20216;-61
2022/01/07 04:27:26;;;;;;;0.43;0.43;;;-1.80;99.90;;;;;;5093394;28;20263;-60
2022/01/07 04:29:52;;;;;;;0.10;0.10;;;-1.80;99.90;;;;;;5093534;28;20207;-59
2022/01/07 04:32:18;;;;;;;0.40;0.40;;;-1.90;99.90;;;;;;5092891;28;20219;-60
2022/01/07 04:34:44;;;;;;;0.10;0.10;;;-1.80;99.90;;;;;;5091887;28;20232;-60
2022/01/07 04:37:10;;;;;;;0.00;0.00;;;-1.90;99.90;;;;;;5093485;28;20180;-60
2022/01/07 04:39:36;;;;;;;0.30;0.30;;;-1.90;99.90;;;;;;5093111;28;20180;-61
2022/01/07 04:42:02;;;;;;;0.40;0.40;;;-1.90;99.90;;;;;;5093655;28;20635;-60
2022/01/07 04:44:28;;;;;;;0.00;0.00;;;-1.90;99.90;;;;;;5092548;28;20208;-59
2022/01/07 04:46:54;;;;;;;0.00;0.00;;;-1.80;99.90;;;;;;5093475;28;20206;-60
2022/01/07 04:49:20;;;;;;;2.27;1.50;;;-1.70;99.90;;;;;;5091197;28;20516;-60
2022/01/07 04:51:45;;;;;;;0.60;0.60;;;-1.80;99.90;;;;;;5093138;28;20298;-61
2022/01/07 04:54:11;;;;;;;0.00;0.00;;;-1.80;99.90;;;;;;5091396;28;20636;-60
2022/01/07 04:56:37;;;;;;;0.00;0.00;;;-1.80;99.90;;;;;;5093185;28;20290;-60
2022/01/07 04:59:03;;;;;;;0.37;0.37;;;-1.80;99.90;;;;;;5092949;28;20694;-60
2022/01/07 05:01:29;;;;;;;0.10;0.10;;;-1.70;99.90;;;;;;5092980;28;20175;-59
2022/01/07 05:03:54;;;;;;;1.93;1.60;;;-1.70;99.90;;;;;;5092487;28;20590;-62
2022/01/07 05:09:04;;;;;;;0.00;0.00;;;-1.70;99.90;;;;;;5092931;28;20191;-60
2022/01/07 05:11:30;;;;;;;1.90;0.53;;;-1.70;99.90;;;;;;5092443;28;20628;-63
2022/01/07 05:13:56;;;;;;;0.33;0.33;;;-1.70;99.90;;;;;;5092405;28;20188;-61
2022/01/07 05:16:23;;;;;;;0.13;0.13;;;-1.70;99.90;;;;;;5091998;28;20584;-61
2022/01/07 05:18:49;;;;;;;4.53;0.87;;;-1.70;99.90;;;;;;5092625;28;20180;-60
2022/01/07 05:21:15;;;;;;;0.00;0.00;;;-1.80;99.90;;;;;;5092293;28;20222;-65
2022/01/07 05:23:41;;;;;;;0.00;0.00;;;-1.80;99.90;;;;;;5092416;28;20209;-61
2022/01/07 05:26:07;;;;;;;0.13;0.13;;;-1.80;99.90;;;;;;5092267;28;20190;-60
2022/01/07 05:28:33;;;;;;;0.20;0.20;;;-1.90;99.90;;;;;;5090883;28;20199;-59
2022/01/07 05:30:59;;;;;;;0.00;0.00;;;-2.00;99.90;;;;;;5092192;28;20180;-60
2022/01/07 05:33:25;;;;;;;0.00;0.00;;;-2.00;99.90;;;;;;5091412;28;20232;-60
2022/01/07 05:35:51;;;;;;;0.00;0.00;;;-2.00;99.90;;;;;;5092199;28;20250;-61
2022/01/07 05:38:17;;;;;;;0.03;0.03;;;-2.00;99.90;;;;;;5090042;28;20649;-61
2022/01/07 05:40:43;;;;;;;0.00;0.00;;;-2.10;99.90;;;;;;5092243;28;20190;-62
2022/01/07 05:43:09;;;;;;;0.27;0.27;;;-2.10;99.90;;;;;;5091325;28;20280;-61
2022/01/07 05:45:34;;;;;;;0.10;0.10;;;-2.20;99.90;;;;;;5091669;28;20268;-60
2022/01/07 05:48:00;;;;;;;0.10;0.10;;;-2.20;99.90;;;;;;5091807;28;20186;-62
2022/01/07 05:50:26;;;;;;;0.20;0.20;;;-2.20;99.90;;;;;;5089539;28;20373;-64
2022/01/07 05:52:52;;;;;;;2.20;0.93;;;-2.30;99.90;;;;;;5092015;28;20196;-63
2022/01/07 05:55:18;;;;;;;0.00;0.00;;;-2.30;99.90;;;;;;5091052;28;20269;-62
2022/01/07 05:57:43;;;;;;;0.00;0.00;;;-2.30;99.90;;;;;;5091241;28;20275;-61
2022/01/07 06:00:10;;;;;;;1.50;0.77;;;-2.20;99.90;;;;;;5091640;28;20184;-61
2022/01/07 06:02:36;;;;;;;0.70;0.70;;;-2.30;99.90;;;;;;5090434;28;20192;-62
2022/01/07 06:05:02;;;;;;;1.37;1.27;;;-2.40;99.90;;;;;;5073003;28;20200;-66
2022/01/07 06:07:28;;;;;;;0.77;0.77;;;-2.40;99.90;;;;;;5085170;28;20202;-66
2022/01/07 06:09:54;;;;;;;0.00;0.00;;;-2.40;99.90;;;;;;5085458;28;20604;-66
2022/01/07 06:12:20;;;;;;;0.27;0.27;;;-2.50;99.90;;;;;;5082750;28;20195;-67
2022/01/07 06:14:45;;;;;;;0.00;0.00;;;-2.50;99.90;;;;;;5088897;28;20314;-66
2022/01/07 06:17:12;;;;;;;1.30;0.97;;;-2.50;99.90;;;;;;5079374;28;20578;-64
2022/01/07 06:19:38;;;;;;;0.10;0.10;;;-2.60;99.90;;;;;;5081353;28;20550;-66
2022/01/07 06:22:05;;;;;;;0.10;0.10;;;-2.60;99.90;;;;;;5081295;28;20184;-65
2022/01/07 06:24:30;;;;;;;0.00;0.00;;;-2.60;99.90;;;;;;5075961;28;20257;-66
2022/01/07 06:26:56;;;;;;;0.50;0.50;;;-2.60;99.90;;;;;;5085548;28;20533;-62
2022/01/07 06:29:22;;;;;;;0.00;0.00;;;-2.60;99.90;;;;;;5082757;28;20187;-62
2022/01/07 06:31:48;;;;;;;0.60;0.53;;;-2.60;99.90;;;;;;5091095;28;20188;-62
2022/01/07 06:34:14;;;;;;;0.00;0.00;;;-2.60;99.90;;;;;;5088861;28;20230;-66
2022/01/07 06:36:39;;;;;;;0.63;0.63;;;-2.60;99.90;;;;;;5083939;28;20228;-64
2022/01/07 06:39:05;;;;;;;0.10;0.10;;;-2.60;99.90;;;;;;5086176;28;20188;-64
2022/01/07 06:41:31;;;;;;;0.00;0.00;;;-2.60;99.90;;;;;;5089716;28;20198;-64
2022/01/07 06:43:57;;;;;;;0.10;0.10;;;-2.50;99.90;;;;;;5094172;28;20555;-62
2022/01/07 06:46:23;;;;;;;0.00;0.00;;;-2.50;99.90;;;;;;5094481;28;20542;-63
2022/01/07 06:48:48;;;;;;;0.03;0.03;;;-2.50;99.90;;;;;;5073058;28;20607;-65
2022/01/07 06:51:14;;;;;;;0.03;0.03;;;-2.50;99.90;;;;;;5092950;28;20625;-70
2022/01/07 06:53:40;;;;;;;0.20;0.20;;;-2.40;99.90;;;;;;5088752;28;20188;-65
2022/01/07 06:56:06;;;;;;;0.00;0.00;;;-2.40;99.90;;;;;;5092346;28;20203;-65
2022/01/07 06:58:32;;;;;;;0.73;0.73;;;-2.50;99.90;;;;;;5087304;28;20280;-65
2022/01/07 07:00:58;;;;;;;0.00;0.00;;;-2.40;99.90;;;;;;5090612;28;20196;-63
2022/01/07 07:03:23;;;;;;;0.00;0.00;;;-2.30;99.90;;;;;;5084106;28;20224;-66
2022/01/07 07:05:49;;;;;;;0.00;0.00;;;-2.40;99.90;;;;;;5089658;28;20192;-65
2022/01/07 07:08:15;;;;;;;0.43;0.30;;;-2.40;99.90;;;;;;5074415;28;20183;-67
2022/01/07 07:10:41;;;;;;;0.10;0.10;;;-2.40;99.90;;;;;;5088366;28;20515;-67
2022/01/07 07:13:06;;;;;;;0.40;0.40;;;-2.40;99.90;;;;;;5087744;28;20636;-65
2022/01/07 07:15:32;;;;;;;1.20;0.67;;;-2.40;99.90;;;;;;5085946;28;20234;-66
2022/01/07 07:17:58;;;;;;;0.10;0.10;;;-2.40;99.90;;;;;;5092072;28;20199;-66
2022/01/07 07:20:24;;;;;;;0.20;0.20;;;-2.40;99.90;;;;;;5091427;28;20651;-66
2022/01/07 07:22:50;;;;;;;0.43;0.27;;;-2.40;99.90;;;;;;5091274;28;20194;-65
2022/01/07 07:25:15;;;;;;;0.07;0.07;;;-2.50;99.90;;;;;;5091961;28;20226;-68
2022/01/07 07:27:41;;;;;;;0.00;0.00;;;-2.40;99.90;;;;;;5087732;28;20639;-66
2022/01/07 07:30:10;;;;;;;0.10;0.10;;;-2.40;99.90;;;;;;5086932;28;20290;-66
2022/01/07 07:32:37;;;;;;;0.30;0.30;;;-2.40;99.90;;;;;;5087768;28;20273;-66
2022/01/07 07:37:45;;;;;;;0.50;0.50;;;-2.40;99.90;;;;;;5087697;28;20187;-66
2022/01/07 07:40:11;;;;;;;0.20;0.20;;;-2.40;99.90;;;;;;5081156;28;20628;-66
2022/01/07 07:42:41;;;;;;;0.50;0.50;;;-2.40;99.90;;;;;;5087452;28;20260;-63
2022/01/07 07:45:08;;;;;;;0.00;0.00;;;-2.40;99.90;;;;;;5087611;28;20239;-63
2022/01/07 07:47:34;;;;;;;0.50;0.50;;;-2.40;99.90;;;;;;5089329;28;20188;-63
2022/01/07 07:50:01;;;;;;;0.30;0.30;;;-2.40;99.90;;;;;;5080688;28;20192;-63
2022/01/07 07:52:26;;;;;;;0.00;0.00;;;-2.30;99.90;;;;;;5089436;28;20183;-64
2022/01/07 07:54:52;;;;;;;0.30;0.30;;;-2.30;99.90;;;;;;5085472;28;20249;-63
2022/01/07 07:57:20;;;;;;;0.00;0.00;;;-2.30;99.90;;;;;;5091038;28;20650;-68
2022/01/07 07:59:45;;;;;;;0.50;0.50;;;-2.30;99.90;;;;;;5092351;28;20211;-65
2022/01/07 08:02:11;;;;;;;0.20;0.20;;;-2.20;99.90;;;;;;5092297;28;20214;-67
2022/01/07 08:04:38;;;;;;;0.00;0.00;;;-2.20;99.90;;;;;;5090911;28;20613;-64
2022/01/07 08:07:04;;;;;;;0.50;0.50;;;-2.10;99.90;;;;;;5091618;28;20584;-64
2022/01/07 08:09:35;;;;;;;0.10;0.10;;;-2.10;99.90;;;;;;5092163;28;20188;-63
2022/01/07 08:12:15;;;;;;;0.00;0.00;;;-2.00;99.90;;;;;;5092039;28;20643;-64
2022/01/07 08:17:25;;;;;;;0.97;0.97;;;-1.90;99.90;;;;;;5090832;28;20209;-64
2022/01/07 08:19:51;;;;;;;0.10;0.10;;;-1.90;99.90;;;;;;5090321;28;20183;-65
2022/01/07 08:22:18;;;;;;;1.90;1.23;;;-1.80;99.90;;;;;;5091155;28;20188;-65
2022/01/07 08:24:43;;;;;;;0.10;0.10;;;-1.80;99.90;;;;;;5090877;28;20735;-64
2022/01/07 08:27:09;;;;;;;0.10;0.10;;;-1.80;99.90;;;;;;5091171;28;20184;-65
2022/01/07 08:29:37;;;;;;;0.17;0.17;;;-1.70;99.90;;;;;;5092288;28;20632;-64
2022/01/07 08:34:54;;;;;;;0.10;0.10;;;-1.40;99.90;;;;;;5092502;28;20305;-68
2022/01/07 08:37:25;;;;;;;0.83;0.83;;;-1.30;99.90;;;;;;5092549;28;20259;-66
2022/01/07 08:39:53;;;;;;;0.37;0.37;;;-1.20;99.90;;;;;;5092950;28;20173;-63
2022/01/07 08:42:23;;;;;;;0.47;0.47;;;-0.80;99.90;;;;;;5092732;28;20196;-71
2022/01/07 08:44:52;;;;;;;0.10;0.10;;;-0.40;99.90;;;;;;5071495;28;20255;-63
2022/01/07 08:47:19;;;;;;;0.33;0.33;;;-0.60;99.90;;;;;;5072680;28;20223;-66
2022/01/07 08:49:46;;;;;;;1.47;1.27;;;-0.80;99.90;;;;;;5072621;28;20210;-66
2022/01/07 08:52:13;;;;;;;4.50;2.07;;;-1.20;99.90;;;;;;5072309;28;20593;-64
2022/01/07 08:54:39;;;;;;;0.10;0.10;;;-1.30;99.90;;;;;;5072350;28;20181;-64
2022/01/07 08:57:05;;;;;;;1.23;1.23;;;-1.30;99.90;;;;;;5071809;28;20264;-63
2022/01/07 08:59:31;;;;;;;0.00;0.00;;;-1.30;99.90;;;;;;5072253;28;20189;-64
2022/01/07 09:01:56;;;;;;;0.33;0.33;;;-1.30;99.90;;;;;;5072167;28;20177;-65
2022/01/07 09:04:23;;;;;;;0.10;0.10;;;-1.30;99.90;;;;;;5070958;28;20213;-64
2022/01/07 09:06:49;;;;;;;0.10;0.10;;;-1.30;99.90;;;;;;5070713;28;20278;-64
2022/01/07 09:09:14;;;;;;;0.20;0.20;;;-1.20;99.90;;;;;;5072121;28;20173;-64
2022/01/07 09:11:40;;;;;;;0.00;0.00;;;-1.30;99.90;;;;;;5071687;28;20195;-64
2022/01/07 09:14:06;;;;;;;0.00;0.00;;;-1.40;99.90;;;;;;5072034;28;20231;-65
2022/01/07 09:16:32;;;;;;;0.00;0.00;;;-1.50;99.90;;;;;;5071430;28;20184;-64
2022/01/07 09:19:00;;;;;;;0.00;0.00;;;-1.50;99.90;;;;;;5071541;28;20234;-63
2022/01/07 09:21:26;;;;;;;0.00;0.00;;;-1.50;99.90;;;;;;5071509;28;20181;-66
2022/01/07 09:23:51;;;;;;;0.20;0.20;;;-1.50;99.90;;;;;;5072198;28;20300;-64
2022/01/07 09:26:18;;;;;;;0.13;0.13;;;-1.50;99.90;;;;;;5070673;28;20186;-65
2022/01/07 09:28:44;;;;;;;0.73;0.63;;;-1.50;99.90;;;;;;5074398;28;20225;-65
2022/01/07 09:31:11;;;;;;;0.00;0.00;;;-1.50;99.90;;;;;;5092328;28;20176;-66
2022/01/07 09:33:37;;;;;;;1.03;0.30;;;-1.50;99.90;;;;;;5091414;28;20683;-64
2022/01/07 09:36:03;;;;;;;1.13;0.67;;;-1.50;99.90;;;;;;5091837;28;20180;-64
2022/01/07 09:38:29;;;;;;;0.30;0.30;;;-1.50;99.90;;;;;;5090250;28;20187;-64
2022/01/07 09:40:54;;;;;;;0.00;0.00;;;-1.50;99.90;;;;;;5090602;28;20184;-63
2022/01/07 09:43:21;;;;;;;0.00;0.00;;;-1.50;99.90;;;;;;5090194;28;20200;-65
2022/01/07 09:45:47;;;;;;;0.20;0.20;;;-1.50;99.90;;;;;;5091769;28;20601;-65
2022/01/07 09:48:13;;;;;;;0.17;0.17;;;-1.40;99.90;;;;;;5090117;28;20185;-64
2022/01/07 09:50:38;;;;;;;0.10;0.10;;;-1.40;99.90;;;;;;5073226;28;20191;-63
2022/01/07 09:53:11;;;;;;;0.00;0.00;;;-1.40;99.90;;;;;;5090949;28;20183;-64
2022/01/07 09:55:37;;;;;;;0.47;0.47;;;-1.30;99.90;;;;;;5091558;28;20180;-65
2022/01/07 09:58:04;;;;;;;0.37;0.33;;;-1.30;99.90;;;;;;5091133;28;20245;-65
2022/01/07 10:00:43;;;;;;;0.10;0.10;;;-1.30;99.90;;;;;;5090458;28;20625;-64
2022/01/07 10:03:12;;;;;;;0.20;0.20;;;-1.20;99.90;;;;;;5090944;28;20211;-64
2022/01/07 10:05:44;;;;;;;0.00;0.00;;;-1.10;99.90;;;;;;5090971;28;20289;-65
2022/01/07 10:08:21;;;;;;;0.40;0.40;;;-1.00;99.90;;;;;;5090566;28;20705;-64
2022/01/07 10:11:07;;;;;;;0.30;0.30;;;-1.00;99.90;;;;;;5090834;28;20237;-64
2022/01/07 10:13:33;;;;;;;20.90;4.27;;;-1.00;99.90;;;;;;5090308;28;20180;-63
2022/01/07 10:16:15;;;;;;;0.40;0.37;;;-1.00;99.90;;;;;;5092486;28;20259;-65
2022/01/07 10:18:42;;;;;;;0.53;0.53;;;-0.90;99.90;;;;;;5095415;28;20216;-65
2022/01/07 10:21:09;;;;;;;0.00;0.00;;;-0.80;99.90;;;;;;5095508;28;20263;-66
2022/01/07 10:23:35;;;;;;;0.20;0.20;;;-0.80;99.90;;;;;;5094510;28;20612;-65
2022/01/07 10:26:01;;;;;;;0.47;0.47;;;-0.80;99.90;;;;;;5094069;28;20216;-64
2022/01/07 10:28:33;;;;;;;0.20;0.20;;;-0.70;99.90;;;;;;5094557;28;20225;-66
2022/01/07 10:31:02;;;;;;;0.00;0.00;;;-0.70;99.90;;;;;;5095258;28;20251;-64
2022/01/07 10:33:31;;;;;;;0.20;0.20;;;-0.60;99.90;;;;;;5094590;28;20309;-64
2022/01/07 10:36:13;;;;;;;0.03;0.03;;;-0.60;99.90;;;;;;5095306;28;20176;-65
2022/01/07 10:38:54;;;;;;;0.73;0.73;;;-0.50;99.90;;;;;;5094017;28;20195;-64
2022/01/07 10:41:21;;;;;;;0.10;0.10;;;-0.50;99.90;;;;;;5093674;28;20183;-65
2022/01/07 10:43:48;;;;;;;0.40;0.40;;;-0.50;99.90;;;;;;5094275;28;21018;-65
2022/01/07 10:46:31;;;;;;;0.20;0.20;;;-0.40;99.90;;;;;;5093331;28;20199;-64
2022/01/07 10:49:02;;;;;;;3.87;1.43;;;-0.40;99.90;;;;;;5092784;28;20178;-65
2022/01/07 10:51:36;;;;;;;0.00;0.00;;;-0.40;99.90;;;;;;5091536;28;20183;-72
2022/01/07 10:54:05;;;;;;;0.73;0.73;;;-0.40;99.90;;;;;;5072613;28;20639;-64
2022/01/07 10:56:34;;;;;;;0.93;0.63;;;-0.40;99.90;;;;;;5073470;28;20632;-64
2022/01/07 10:59:07;;;;;;;0.10;0.10;;;-0.40;99.90;;;;;;5072627;28;20181;-65
2022/01/07 11:01:46;;;;;;;0.00;0.00;;;-0.40;99.90;;;;;;5072255;28;20188;-66
2022/01/07 11:04:20;;;;;;;0.57;0.57;;;-0.40;99.90;;;;;;5073268;28;20251;-65
2022/01/07 11:06:47;;;;;;;0.40;0.40;;;-0.40;99.90;;;;;;5073064;28;20620;-64
2022/01/07 11:09:15;;;;;;;1.20;0.67;;;-0.40;99.90;;;;;;5089555;28;20189;-65
2022/01/07 11:11:47;;;;;;;0.20;0.20;;;-0.40;99.90;;;;;;5072998;28;20604;-66
2022/01/07 11:14:17;;;;;;;0.43;0.30;;;-0.50;99.90;;;;;;5072167;28;20185;-65
2022/01/07 11:16:43;;;;;;;0.87;0.30;;;-0.40;99.90;;;;;;5073418;28;20287;-64
2022/01/07 11:19:10;;;;;;;0.00;0.00;;;-0.50;99.90;;;;;;5073149;28;20177;-64
2022/01/07 11:21:37;;;;;;;0.73;0.73;;;-0.40;99.90;;;;;;5073650;28;20246;-65
2022/01/07 11:24:34;;;;;;;0.07;0.07;;;-0.40;99.90;;;;;;5073878;28;20296;-63
2022/01/07 11:27:08;;;;;;;0.17;0.17;;;-0.40;99.90;;;;;;5073438;28;20190;-65
2022/01/07 11:30:03;;;;;;;3.40;1.20;;;-0.40;99.90;;;;;;5096086;28;20283;-65
2022/01/07 11:32:37;;;;;;;0.00;0.00;;;-0.40;99.90;;;;;;5066292;28;20193;-64
2022/01/07 11:35:18;;;;;;;1.10;0.97;;;-0.40;99.90;;;;;;5073542;28;20171;-65
2022/01/07 11:37:52;;;;;;;22.73;1.80;;;-0.30;99.90;;;;;;5073041;28;20579;-64
2022/01/07 11:40:31;;;;;;;0.10;0.10;;;-0.30;99.90;;;;;;5073393;28;20235;-65
2022/01/07 11:42:57;;;;;;;0.67;0.67;;;-0.30;99.90;;;;;;5077912;28;20173;-64
2022/01/07 11:45:29;;;;;;;0.87;0.87;;;-0.20;99.90;;;;;;5093382;28;20263;-65
2022/01/07 11:47:57;;;;;;;0.17;0.17;;;-0.20;99.90;;;;;;5092294;28;20188;-66
2022/01/07 11:50:23;;;;;;;1.60;0.87;;;-0.10;99.90;;;;;;5093364;28;20208;-66
2022/01/07 11:53:05;;;;;;;0.10;0.10;;;-0.10;99.90;;;;;;5092696;28;20193;-64
2022/01/07 11:55:35;;;;;;;0.20;0.20;;;-0.10;99.90;;;;;;5093534;28;20225;-72
2022/01/07 11:58:04;;;;;;;0.50;0.50;;;0.00;99.90;;;;;;5093495;28;20184;-66
2022/01/07 12:00:49;;;;;;;1.10;0.60;;;0.10;99.90;;;;;;5093311;28;20191;-64
2022/01/07 12:04:00;;;;;;;0.57;0.43;;;0.10;99.90;;;;;;5093149;28;20555;-67
2022/01/07 12:06:27;;;;;;;0.07;0.07;;;0.00;99.90;;;;;;5092358;28;20188;-68
2022/01/07 12:09:13;;;;;;;15.30;1.13;;;-0.10;99.90;;;;;;5092917;28;20173;-67
2022/01/07 12:11:42;;;;;;;0.57;0.57;;;-0.10;99.90;;;;;;5091634;28;20169;-66
2022/01/07 12:14:15;;;;;;;0.60;0.60;;;-0.10;99.90;;;;;;5091849;28;20287;-65
2022/01/07 12:16:43;;;;;;;0.30;0.30;;;0.00;99.90;;;;;;5092586;28;20923;-65
2022/01/07 12:19:15;;;;;;;0.00;0.00;;;0.00;99.90;;;;;;5091215;28;20175;-64
2022/01/07 12:21:42;;;;;;;0.10;0.10;;;0.00;99.90;;;;;;5092406;28;20673;-65
2022/01/07 12:24:09;;;;;;;0.53;0.47;;;0.10;99.90;;;;;;5093351;28;20200;-66
2022/01/07 12:26:36;;;;;;;1.00;0.83;;;0.30;99.90;;;;;;5093203;28;20528;-66
2022/01/07 12:29:02;;;;;;;0.30;0.30;;;0.50;99.90;;;;;;5092960;28;20185;-65
2022/01/07 12:31:28;;;;;;;2.77;0.90;;;0.90;99.90;;;;;;5092901;28;20185;-66
2022/01/07 12:33:56;;;;;;;0.53;0.53;;;1.70;99.90;;;;;;5090832;28;20237;-67
2022/01/07 12:36:30;;;;;;;0.10;0.10;;;2.30;99.90;;;;;;5074909;28;20251;-66
2022/01/07 12:39:10;;;;;;;0.10;0.10;;;2.80;99.20;;;;;;5092027;28;20184;-66
2022/01/07 12:41:39;;;;;;;0.30;0.30;;;3.60;97.20;;;;;;5092473;28;20256;-64
2022/01/07 12:44:14;;;;;;;3.53;2.20;;;3.50;96.20;;;;;;5091398;28;20201;-66
2022/01/07 12:46:41;;;;;;;0.80;0.80;;;2.90;96.90;;;;;;5092410;28;20211;-65
2022/01/07 12:49:09;;;;;;;0.57;0.57;;;2.20;98.20;;;;;;5092175;28;20510;-65
2022/01/07 12:51:36;;;;;;;0.30;0.30;;;1.60;98.50;;;;;;5091958;28;20198;-67
2022/01/07 12:54:06;;;;;;;0.20;0.20;;;1.10;99.50;;;;;;5093311;28;20256;-66
2022/01/07 12:56:35;;;;;;;0.20;0.20;;;0.70;99.90;;;;;;5092319;28;20523;-66
2022/01/07 12:59:18;;;;;;;0.03;0.03;;;0.30;99.90;;;;;;5090769;28;20626;-67
2022/01/07 13:01:46;;;;;;;4.03;1.07;;;0.10;99.90;;;;;;5092470;28;20221;-66